Página principal
METAR-TAF:

METAR-TAF

Aeroportos :

Urgench, Uzbequistão

latitude: 41-35N, longitude: 060-38-42E, altura: 98 m

Observação actual do tempo

O boletim foi feito há 24 minutos, às 11:30 UTC
Vento 6 kt de este
Temperatura 9°C
Humidade 23%
Pressão 1023 hPa
Visibilidade 10 km ou mais
sem nuvens abaixo de 1500 metros e sem cumulonimbus

METAR: UTNU 181130Z 09006KT CAVOK 09/M11 Q1023 R31/CLRD70 NOSIG

Hora: 16:54 (11:54 UTC)

Previsão

O boletim foi feito há 51 minutos, às 11:03 UTC
Previsão válida de 18 às 12 UTC a 19 às 12 UTC
Vento 10 kt de este com rajadas de 20 kt
Visibilidade: 6000 m
Nuvens dispersasa uma altura de 5000 ft
Nuvens dispersasa uma altura de 10000 ft
Temporariamente
de 18 às 12 UTC a 18 às 18 UTC
Vento 12 kt de nor-nordeste
Nuvens dispersasa uma altura de 4000 ft, Cumulonimbus.
Nuvens fragmentadasa uma altura de 10000 ft

TAF: UTNU 181103Z 1812/1912 09010G20KT 6000 SCT050 SCT100 TEMPO 1812/1818 03012KT SCT040CB BKN100

Observações e previsões do tempo de mais de 4000 aeroportos (mensagens METAR e TAF).

As estações disponíveis são os pontos amarelos e vermelhos sobre o mapa.

Mova o rato sobre o mapa para ver o nome da estação.

Depois clique no ponto para visualizar as observações e previsões meteorológicas.

Para alterar o mapa : clique nos botões verdes com uma cruz preta para aumentar o zoom; no botão verde com uma pitada de zoom; ou nas setas verdes para mapas adjacentes.


METAR-TAF: